createdAt,value
2018-11-06T00:00:49.701Z,4.33
2018-11-06T00:03:24.323Z,5.12
2018-11-06T00:05:53.648Z,4.12
2018-11-06T00:08:22.587Z,3.80
2018-11-06T00:10:51.400Z,3.67
2018-11-06T00:13:20.294Z,4.65
2018-11-06T00:15:49.215Z,3.17
2018-11-06T00:18:18.061Z,4.30
2018-11-06T00:20:47.004Z,2.87
2018-11-06T00:23:15.921Z,3.40
2018-11-06T00:25:44.759Z,2.80
2018-11-06T00:28:13.736Z,3.25
2018-11-06T00:30:42.609Z,2.70
2018-11-06T00:33:11.485Z,3.12
2018-11-06T00:35:40.407Z,2.95
2018-11-06T00:38:09.229Z,3.80
2018-11-06T00:40:38.152Z,2.70
2018-11-06T00:43:07.074Z,3.00
2018-11-06T00:45:36.015Z,2.55
2018-11-06T00:48:04.964Z,3.00
2018-11-06T00:50:33.818Z,3.10
2018-11-06T00:53:02.590Z,3.20
2018-11-06T00:55:31.418Z,2.55
2018-11-06T00:58:00.372Z,2.95
2018-11-06T01:00:29.194Z,2.33
2018-11-06T01:02:57.944Z,2.70
2018-11-06T01:05:27.060Z,2.77
2018-11-06T01:07:55.910Z,3.10
2018-11-06T01:10:24.714Z,2.80
2018-11-06T01:12:53.544Z,3.30
2018-11-06T01:15:22.417Z,3.05
2018-11-06T01:17:51.285Z,3.02
2018-11-06T01:20:20.256Z,3.27
2018-11-06T01:22:49.077Z,2.70
2018-11-06T01:25:17.997Z,2.35
2018-11-06T01:27:46.883Z,2.67
2018-11-06T01:30:17.950Z,3.45
2018-11-06T01:32:47.232Z,3.75
2018-11-06T01:35:16.577Z,3.15
2018-11-06T01:37:46.084Z,2.67
2018-11-06T01:40:15.974Z,2.80
2018-11-06T01:42:45.341Z,2.98
2018-11-06T01:45:15.590Z,3.10
2018-11-06T01:47:44.452Z,2.83
2018-11-06T01:50:16.273Z,2.80
2018-11-06T01:52:45.900Z,2.90
2018-11-06T01:55:14.707Z,3.15
2018-11-06T01:57:43.571Z,3.75
2018-11-06T02:00:15.724Z,3.15
2018-11-06T02:02:44.551Z,2.85
2018-11-06T02:05:14.654Z,2.90
2018-11-06T02:07:44.989Z,3.12
2018-11-06T02:10:15.029Z,3.30
2018-11-06T02:12:45.294Z,3.17
2018-11-06T02:15:14.394Z,2.90
2018-11-06T02:17:44.098Z,2.72
2018-11-06T02:20:14.027Z,2.95
2018-11-06T02:22:43.760Z,2.55
2018-11-06T02:25:13.035Z,2.80
2018-11-06T02:27:41.941Z,3.02
2018-11-06T02:30:12.660Z,2.80
2018-11-06T02:32:42.245Z,2.30
2018-11-06T02:35:11.085Z,2.80
2018-11-06T02:37:39.930Z,2.42
2018-11-06T02:40:10.702Z,1.90
2018-11-06T02:42:39.704Z,2.87
2018-11-06T02:45:09.117Z,2.33
2018-11-06T02:47:38.050Z,3.00
2018-11-06T02:50:07.451Z,2.90
2018-11-06T02:52:36.230Z,3.02
2018-11-06T02:55:05.680Z,2.47
2018-11-06T02:57:34.594Z,2.83
2018-11-06T03:00:03.534Z,2.50
2018-11-06T03:02:32.710Z,2.75
2018-11-06T03:05:01.627Z,2.35
2018-11-06T03:07:30.690Z,3.10
2018-11-06T03:09:59.713Z,2.37
2018-11-06T03:12:28.593Z,2.35
2018-11-06T03:14:57.856Z,2.98
2018-11-06T03:17:26.750Z,2.62
2018-11-06T03:19:55.515Z,2.67
2018-11-06T03:22:24.352Z,2.98
2018-11-06T03:24:53.279Z,2.80
2018-11-06T03:27:22.071Z,2.30
2018-11-06T03:29:50.982Z,2.70
2018-11-06T03:32:19.878Z,3.30
2018-11-06T03:34:48.722Z,2.60
2018-11-06T03:37:17.602Z,2.10
2018-11-06T03:39:46.468Z,2.27
2018-11-06T03:42:15.507Z,2.55
2018-11-06T03:44:44.323Z,2.60
2018-11-06T03:47:13.185Z,2.67
2018-11-06T03:49:41.986Z,2.33
2018-11-06T03:52:10.822Z,2.20
2018-11-06T03:54:39.672Z,2.40
2018-11-06T03:57:08.466Z,2.50
2018-11-06T03:59:37.375Z,2.90
2018-11-06T04:02:06.347Z,2.75
2018-11-06T04:04:35.295Z,2.33
2018-11-06T04:07:04.273Z,2.12
2018-11-06T04:09:33.161Z,2.70
2018-11-06T04:12:09.381Z,2.52
2018-11-06T04:14:38.293Z,2.30
2018-11-06T04:17:07.215Z,2.55
2018-11-06T04:19:36.015Z,3.02
2018-11-06T04:22:05.358Z,2.00
2018-11-06T04:24:34.258Z,2.50
2018-11-06T04:27:03.085Z,2.65
2018-11-06T04:29:31.967Z,3.25
2018-11-06T04:32:00.861Z,3.20
2018-11-06T04:34:29.800Z,2.60
2018-11-06T04:36:58.615Z,2.42
2018-11-06T04:39:27.532Z,2.83
2018-11-06T04:41:56.361Z,2.80
2018-11-06T04:44:25.253Z,2.20
2018-11-06T04:46:54.137Z,2.15
2018-11-06T04:49:23.009Z,2.33
2018-11-06T04:51:51.875Z,2.60
2018-11-06T04:54:20.851Z,2.08
2018-11-06T04:56:49.666Z,2.67
2018-11-06T04:59:18.573Z,2.80
2018-11-06T05:01:47.509Z,2.65
2018-11-06T05:04:16.436Z,2.80
2018-11-06T05:06:45.352Z,3.22
2018-11-06T05:09:14.195Z,2.50
2018-11-06T05:11:43.086Z,2.47
2018-11-06T05:14:12.019Z,2.62
2018-11-06T05:16:40.904Z,2.98
2018-11-06T05:19:09.761Z,2.60
2018-11-06T05:21:38.561Z,3.15
2018-11-06T05:24:07.306Z,3.45
2018-11-06T05:26:36.106Z,2.40
2018-11-06T05:29:04.974Z,3.42
2018-11-06T05:31:33.713Z,2.77
2018-11-06T05:34:02.607Z,3.12
2018-11-06T05:36:31.427Z,4.22
2018-11-06T05:39:00.351Z,3.85
2018-11-06T05:41:29.185Z,4.00
2018-11-06T05:43:58.042Z,3.83
2018-11-06T05:46:26.858Z,3.72
2018-11-06T05:48:55.898Z,3.25
2018-11-06T05:51:24.863Z,3.22
2018-11-06T05:53:53.709Z,2.83
2018-11-06T05:56:22.547Z,3.20
2018-11-06T05:58:51.332Z,3.33
2018-11-06T06:01:20.120Z,3.30
2018-11-06T06:03:49.032Z,3.15
2018-11-06T06:06:17.925Z,3.12
2018-11-06T06:08:46.748Z,3.20
2018-11-06T06:11:15.563Z,3.25
2018-11-06T06:13:44.360Z,3.80
2018-11-06T06:16:13.256Z,3.27
2018-11-06T06:18:42.040Z,3.25
2018-11-06T06:21:10.963Z,3.10
2018-11-06T06:23:39.864Z,3.00
2018-11-06T06:26:08.903Z,3.30
2018-11-06T06:28:37.749Z,3.20
2018-11-06T06:31:06.580Z,3.33
2018-11-06T06:33:35.414Z,3.72
2018-11-06T06:36:04.270Z,2.80
2018-11-06T06:38:33.446Z,3.70
2018-11-06T06:41:02.355Z,3.05
2018-11-06T06:43:31.152Z,3.52
2018-11-06T06:45:59.989Z,3.70
2018-11-06T06:48:28.929Z,3.90
2018-11-06T06:50:57.806Z,3.20
2018-11-06T06:53:26.752Z,3.25
2018-11-06T06:55:55.651Z,2.60
2018-11-06T06:58:24.488Z,2.77
2018-11-06T07:00:53.331Z,2.67
2018-11-06T07:03:22.257Z,2.35
2018-11-06T07:05:51.106Z,2.87
2018-11-06T07:08:19.958Z,2.92
2018-11-06T07:10:48.826Z,2.70
2018-11-06T07:13:17.733Z,2.20
2018-11-06T07:15:46.651Z,2.77
2018-11-06T07:18:15.540Z,2.83
2018-11-06T07:20:44.566Z,3.03
2018-11-06T07:23:13.483Z,2.65
2018-11-06T07:25:42.482Z,2.80
2018-11-06T07:28:11.936Z,2.85
2018-11-06T07:30:40.935Z,9.50
2018-11-06T07:33:09.939Z,13.75
2018-11-06T07:35:38.942Z,11.03
2018-11-06T07:38:09.311Z,6.70
2018-11-06T07:40:38.218Z,5.93
2018-11-06T07:43:06.995Z,4.30
2018-11-06T07:45:35.872Z,2.00
2018-11-06T07:48:05.287Z,2.20
2018-11-06T07:50:34.257Z,2.37
2018-11-06T07:53:03.264Z,2.13
2018-11-06T07:55:32.537Z,2.07
2018-11-06T07:58:01.990Z,2.10
2018-11-06T08:00:31.617Z,2.37
2018-11-06T08:03:01.532Z,2.60
2018-11-06T08:05:30.745Z,3.07
2018-11-06T08:07:59.589Z,2.00
2018-11-06T08:10:28.383Z,2.17
2018-11-06T08:12:57.201Z,2.60
2018-11-06T08:15:26.337Z,1.90
2018-11-06T08:17:55.188Z,2.20
2018-11-06T08:20:24.058Z,2.90
2018-11-06T08:22:52.998Z,2.77
2018-11-06T08:25:22.042Z,3.00
2018-11-06T08:27:50.955Z,2.80
2018-11-06T08:30:19.846Z,2.57
2018-11-06T08:32:48.895Z,3.77
2018-11-06T08:35:18.365Z,4.00
2018-11-06T08:37:47.247Z,3.43
2018-11-06T08:40:17.144Z,3.00
2018-11-06T08:42:46.012Z,3.90
2018-11-06T08:45:15.581Z,3.93
2018-11-06T08:47:44.986Z,4.27
2018-11-06T08:50:15.201Z,7.20
2018-11-06T08:52:44.058Z,6.83
2018-11-06T08:55:13.936Z,6.90
2018-11-06T08:57:43.511Z,6.63
2018-11-06T09:00:14.579Z,7.17
2018-11-06T09:02:44.572Z,5.50
2018-11-06T09:05:14.586Z,6.80
2018-11-06T09:07:43.533Z,6.10
2018-11-06T09:10:13.513Z,5.83
2018-11-06T09:12:42.459Z,5.60
2018-11-06T09:15:12.883Z,5.70
2018-11-06T09:17:41.772Z,6.03
2018-11-06T09:20:14.378Z,5.77
2018-11-06T09:22:43.402Z,6.30
2018-11-06T09:25:13.597Z,5.57
2018-11-06T09:27:43.171Z,6.07
2018-11-06T09:30:14.787Z,14.20
2018-11-06T09:32:43.672Z,16.33
2018-11-06T09:35:13.415Z,32.83
2018-11-06T09:37:42.763Z,41.97
2018-11-06T09:40:13.722Z,35.50
2018-11-06T09:42:42.538Z,30.37
2018-11-06T09:45:12.275Z,30.07
2018-11-06T09:47:41.079Z,28.10
2018-11-06T09:50:13.377Z,17.10
2018-11-06T09:52:42.823Z,15.43
2018-11-06T09:55:11.686Z,8.70
2018-11-06T09:57:40.554Z,6.80
2018-11-06T10:00:13.480Z,7.77
2018-11-06T10:02:42.507Z,7.43
2018-11-06T10:05:12.151Z,7.47
2018-11-06T10:07:41.075Z,6.93
2018-11-06T10:10:11.638Z,6.93
2018-11-06T10:12:40.860Z,5.57
2018-11-06T10:15:11.831Z,5.37
2018-11-06T10:17:41.846Z,6.37
2018-11-06T10:20:11.837Z,6.50
2018-11-06T10:22:40.720Z,6.10
2018-11-06T10:25:09.566Z,6.77
2018-11-06T10:27:39.066Z,8.13
2018-11-06T10:30:11.016Z,8.93
2018-11-06T10:32:39.892Z,10.13
2018-11-06T10:35:09.519Z,11.83
2018-11-06T10:37:38.940Z,11.87
2018-11-06T10:40:14.105Z,12.07
2018-11-06T10:42:43.793Z,11.90
2018-11-06T10:45:12.788Z,12.13
2018-11-06T10:47:41.806Z,10.70
2018-11-06T10:50:12.413Z,11.00
2018-11-06T10:52:41.688Z,11.30
2018-11-06T10:55:11.093Z,12.60
2018-11-06T10:57:40.569Z,9.37
2018-11-06T11:00:16.039Z,10.40
2018-11-06T11:02:50.034Z,9.07
2018-11-06T11:05:19.423Z,10.70
2018-11-06T11:07:48.436Z,9.70
2018-11-06T11:10:17.273Z,11.30
2018-11-06T11:12:46.134Z,11.53
2018-11-06T11:15:14.930Z,11.80
2018-11-06T11:17:43.747Z,11.23
2018-11-06T11:20:13.812Z,11.70
2018-11-06T11:22:42.854Z,11.33
2018-11-06T11:25:13.162Z,10.00
2018-11-06T11:27:42.529Z,9.00
2018-11-06T11:30:12.976Z,8.90
2018-11-06T11:32:43.512Z,9.90
2018-11-06T11:35:12.567Z,9.00
2018-11-06T11:37:41.467Z,8.80
2018-11-06T11:40:11.569Z,9.33
2018-11-06T11:42:40.557Z,9.10
2018-11-06T11:45:10.734Z,9.10
2018-11-06T11:47:39.918Z,9.33
2018-11-06T11:50:10.157Z,8.13
2018-11-06T11:52:39.324Z,8.97
2018-11-06T11:55:08.742Z,9.30
2018-11-06T11:57:38.002Z,9.77
2018-11-06T12:00:08.753Z,10.20
2018-11-06T12:02:38.656Z,10.40
2018-11-06T12:05:08.751Z,10.70
2018-11-06T12:07:37.633Z,9.53
2018-11-06T12:10:07.520Z,10.40
2018-11-06T12:12:36.393Z,10.73
2018-11-06T12:15:06.738Z,9.23
2018-11-06T12:17:35.611Z,8.90
2018-11-06T12:20:04.408Z,8.73
2018-11-06T12:22:33.252Z,8.57
2018-11-06T12:25:02.326Z,8.50
2018-11-06T12:27:31.066Z,8.30
2018-11-06T12:30:00.159Z,7.70
2018-11-06T12:32:29.031Z,7.60
2018-11-06T12:34:57.926Z,9.10
2018-11-06T12:37:26.780Z,8.00
2018-11-06T12:39:56.011Z,8.17
2018-11-06T12:42:26.707Z,7.80
2018-11-06T12:44:55.822Z,7.43
2018-11-06T12:47:25.391Z,7.87
2018-11-06T12:49:55.240Z,8.17
2018-11-06T12:52:25.196Z,7.43
2018-11-06T12:54:54.146Z,8.17
2018-11-06T12:57:24.474Z,8.70
2018-11-06T12:59:53.419Z,7.77
2018-11-06T13:02:22.326Z,7.30
2018-11-06T13:04:51.209Z,8.23
2018-11-06T13:07:20.073Z,7.70
2018-11-06T13:09:48.967Z,7.83
2018-11-06T13:12:17.849Z,7.87
2018-11-06T13:14:46.744Z,6.90
2018-11-06T13:17:15.676Z,6.80
2018-11-06T13:19:44.461Z,6.90
2018-11-06T13:22:13.366Z,6.93
2018-11-06T13:24:42.179Z,5.93
2018-11-06T13:27:11.142Z,7.00
2018-11-06T13:29:39.986Z,6.70
2018-11-06T13:32:09.372Z,7.23
2018-11-06T13:34:38.771Z,7.30
2018-11-06T13:37:07.897Z,7.30
2018-11-06T13:39:36.690Z,7.10
2018-11-06T13:42:05.779Z,8.20
2018-11-06T13:44:36.657Z,7.43
2018-11-06T13:47:05.987Z,7.13
2018-11-06T13:49:34.882Z,7.83
2018-11-06T13:52:03.781Z,8.20
2018-11-06T13:54:33.725Z,7.70
2018-11-06T13:57:02.756Z,8.60
2018-11-06T13:59:32.187Z,6.70
2018-11-06T14:02:01.168Z,7.43
2018-11-06T14:04:30.325Z,7.00
2018-11-06T14:06:59.231Z,7.63
2018-11-06T14:09:28.235Z,7.60
2018-11-06T14:11:57.063Z,7.40
2018-11-06T14:14:25.963Z,7.70
2018-11-06T14:16:54.878Z,8.00
2018-11-06T14:19:23.733Z,7.63
2018-11-06T14:21:52.624Z,7.03
2018-11-06T14:24:21.420Z,7.40
2018-11-06T14:26:50.314Z,7.50
2018-11-06T14:29:19.153Z,7.27
2018-11-06T14:31:48.076Z,6.87
2018-11-06T14:34:17.041Z,7.00
2018-11-06T14:36:45.953Z,7.03
2018-11-06T14:39:14.776Z,7.20
2018-11-06T14:41:43.598Z,7.43
2018-11-06T14:44:12.487Z,8.50
2018-11-06T14:46:41.404Z,7.40
2018-11-06T14:49:10.304Z,7.20
2018-11-06T14:51:39.479Z,7.37
2018-11-06T14:54:08.335Z,7.50
2018-11-06T14:56:37.144Z,8.10
2018-11-06T14:59:05.959Z,8.10
2018-11-06T15:01:34.815Z,8.57
2018-11-06T15:04:03.956Z,8.20
2018-11-06T15:06:33.047Z,8.20
2018-11-06T15:09:02.453Z,7.30
2018-11-06T15:11:31.263Z,8.23
2018-11-06T15:14:00.231Z,7.60
2018-11-06T15:16:29.160Z,6.80
2018-11-06T15:18:58.209Z,16.07
2018-11-06T15:21:27.442Z,13.77
2018-11-06T15:23:56.342Z,8.47
2018-11-06T15:26:25.350Z,6.50
2018-11-06T15:28:54.423Z,7.40
2018-11-06T15:31:23.444Z,9.13
2018-11-06T15:33:52.322Z,8.13
2018-11-06T15:36:21.338Z,7.10
2018-11-06T15:38:50.613Z,7.80
2018-11-06T15:41:19.511Z,7.63
2018-11-06T15:43:48.464Z,7.60
2018-11-06T15:46:17.311Z,8.50
2018-11-06T15:48:46.195Z,9.30
2018-11-06T15:51:14.910Z,8.87
2018-11-06T15:53:43.759Z,8.77
2018-11-06T15:56:12.629Z,7.77
2018-11-06T15:58:41.482Z,6.60
2018-11-06T16:01:10.395Z,6.50
2018-11-06T16:03:39.274Z,7.27
2018-11-06T16:06:08.103Z,8.37
2018-11-06T16:08:36.944Z,9.90
2018-11-06T16:11:06.307Z,9.70
2018-11-06T16:13:35.162Z,13.10
2018-11-06T16:16:04.383Z,22.10
2018-11-06T16:18:33.292Z,17.67
2018-11-06T16:21:02.307Z,14.67
2018-11-06T16:23:31.295Z,13.77
2018-11-06T16:26:00.182Z,15.20
2018-11-06T16:28:29.157Z,13.07
2018-11-06T16:30:58.230Z,13.50
2018-11-06T16:33:27.203Z,14.83
2018-11-06T16:35:56.185Z,14.73
2018-11-06T16:38:25.749Z,14.90
2018-11-06T16:40:54.796Z,16.80
2018-11-06T16:43:23.727Z,18.33
2018-11-06T16:45:52.658Z,16.57
2018-11-06T16:48:21.568Z,15.63
2018-11-06T16:50:50.477Z,17.30
2018-11-06T16:53:19.360Z,15.63
2018-11-06T16:55:48.239Z,13.57
2018-11-06T16:58:17.225Z,13.37
2018-11-06T17:00:46.307Z,12.50
2018-11-06T17:03:15.141Z,15.67
2018-11-06T17:05:44.173Z,15.97
2018-11-06T17:08:13.152Z,14.40
2018-11-06T17:10:42.170Z,19.57
2018-11-06T17:13:11.072Z,14.97
2018-11-06T17:15:40.055Z,14.10
2018-11-06T17:18:08.994Z,13.43
2018-11-06T17:20:38.186Z,14.77
2018-11-06T17:23:07.152Z,14.60
2018-11-06T17:25:40.006Z,15.47
2018-11-06T17:28:09.231Z,15.37
2018-11-06T17:30:38.241Z,13.93
2018-11-06T17:33:07.722Z,13.43
2018-11-06T17:35:36.870Z,11.90
2018-11-06T17:38:06.099Z,14.20
2018-11-06T17:40:35.037Z,16.00
2018-11-06T17:43:03.997Z,16.00
2018-11-06T17:45:33.097Z,15.60
2018-11-06T17:48:02.097Z,16.20
2018-11-06T17:50:31.118Z,15.10
2018-11-06T17:53:00.106Z,16.50
2018-11-06T17:55:29.123Z,16.17
2018-11-06T17:57:58.143Z,15.37
2018-11-06T18:00:27.727Z,15.50
2018-11-06T18:02:57.029Z,14.00
2018-11-06T18:05:26.516Z,15.30
2018-11-06T18:07:55.621Z,17.00
2018-11-06T18:10:24.474Z,18.30
2018-11-06T18:12:53.487Z,15.90
2018-11-06T18:15:22.441Z,8.30
2018-11-06T18:17:51.663Z,6.97
2018-11-06T18:20:20.579Z,3.80
2018-11-06T18:22:49.862Z,3.67
2018-11-06T18:25:19.467Z,3.40
2018-11-06T18:27:48.626Z,3.90
2018-11-06T18:30:18.746Z,3.37
2018-11-06T18:32:47.850Z,3.83
2018-11-06T18:35:17.735Z,4.30
2018-11-06T18:37:46.787Z,3.90
2018-11-06T18:40:18.696Z,4.00
2018-11-06T18:42:48.655Z,3.93
2018-11-06T18:45:18.053Z,3.17
2018-11-06T18:47:47.246Z,3.90
2018-11-06T18:50:18.043Z,3.80
2018-11-06T18:52:48.762Z,3.90
2018-11-06T18:55:17.882Z,3.63
2018-11-06T18:57:49.427Z,4.00
2018-11-06T19:00:21.190Z,3.80
2018-11-06T19:02:52.949Z,4.40
2018-11-06T19:05:23.217Z,4.20
2018-11-06T19:07:59.402Z,4.07
2018-11-06T19:10:28.629Z,4.50
2018-11-06T19:13:06.434Z,5.77
2018-11-06T19:15:35.854Z,4.70
2018-11-06T19:18:06.734Z,5.27
2018-11-06T19:20:35.682Z,5.23
2018-11-06T19:23:04.896Z,5.57
2018-11-06T19:25:34.048Z,5.53
2018-11-06T19:28:05.753Z,5.43
2018-11-06T19:30:39.337Z,5.60
2018-11-06T19:33:18.756Z,5.80
2018-11-06T19:35:52.672Z,5.70
2018-11-06T19:38:29.834Z,6.33
2018-11-06T19:41:12.449Z,6.93
2018-11-06T19:47:03.744Z,7.47
2018-11-06T19:49:38.043Z,7.97
2018-11-06T19:52:07.191Z,7.00
2018-11-06T19:54:36.408Z,7.50
2018-11-06T19:57:05.692Z,7.90
2018-11-06T19:59:35.873Z,7.73
2018-11-06T20:02:05.468Z,6.53
2018-11-06T20:04:38.719Z,7.10
2018-11-06T20:07:08.609Z,7.60
2018-11-06T20:09:37.919Z,7.30
2018-11-06T20:12:08.251Z,7.60
2018-11-06T20:14:37.775Z,7.83
2018-11-06T20:17:07.495Z,6.90
2018-11-06T20:19:36.556Z,9.37
2018-11-06T20:22:05.862Z,8.37
2018-11-06T20:24:35.096Z,7.60
2018-11-06T20:27:07.617Z,7.50
2018-11-06T20:29:37.456Z,8.40
2018-11-06T20:32:15.367Z,11.00
2018-11-06T20:34:44.617Z,8.40
2018-11-06T20:37:14.786Z,8.70
2018-11-06T20:39:44.159Z,7.77
2018-11-06T20:42:13.168Z,8.00
2018-11-06T20:44:42.311Z,8.27
2018-11-06T20:47:11.286Z,8.43
2018-11-06T20:49:40.640Z,8.90
2018-11-06T20:52:10.160Z,8.23
2018-11-06T20:54:39.426Z,9.67
2018-11-06T20:57:10.013Z,8.07
2018-11-06T20:59:39.422Z,7.37
2018-11-06T21:02:08.693Z,8.50
2018-11-06T21:04:42.948Z,8.70
2018-11-06T21:07:12.626Z,8.93
2018-11-06T21:09:41.609Z,8.53
2018-11-06T21:12:11.623Z,8.47
2018-11-06T21:14:41.190Z,8.90
2018-11-06T21:17:10.293Z,9.30
2018-11-06T21:19:39.486Z,8.63
2018-11-06T21:22:12.954Z,8.23
2018-11-06T21:24:43.650Z,8.63
2018-11-06T21:27:12.797Z,9.67
2018-11-06T21:29:41.751Z,9.67
2018-11-06T21:32:11.360Z,9.50
2018-11-06T21:34:40.309Z,10.70
2018-11-06T21:37:09.379Z,9.30
2018-11-06T21:39:38.521Z,10.50
2018-11-06T21:42:07.465Z,10.33
2018-11-06T21:44:36.400Z,10.70
2018-11-06T21:47:05.825Z,10.40
2018-11-06T21:49:34.893Z,10.00
2018-11-06T21:52:03.888Z,10.27
2018-11-06T21:54:32.995Z,10.40
2018-11-06T21:57:01.990Z,9.03
2018-11-06T21:59:30.966Z,10.90
2018-11-06T22:02:00.063Z,11.00
2018-11-06T22:04:29.065Z,10.70
2018-11-06T22:06:58.035Z,11.40
2018-11-06T22:09:27.074Z,11.47
2018-11-06T22:11:56.013Z,11.57
2018-11-06T22:14:25.096Z,11.50
2018-11-06T22:16:54.113Z,11.00
2018-11-06T22:19:23.044Z,10.07
2018-11-06T22:21:51.981Z,11.60
2018-11-06T22:24:21.756Z,10.80
2018-11-06T22:26:50.666Z,10.30
2018-11-06T22:29:19.768Z,11.30
2018-11-06T22:31:48.996Z,11.47
2018-11-06T22:34:17.969Z,10.83
2018-11-06T22:36:46.929Z,11.77
2018-11-06T22:39:15.877Z,12.90
2018-11-06T22:41:44.810Z,11.10
2018-11-06T22:44:13.730Z,11.73
2018-11-06T22:46:42.719Z,13.63
2018-11-06T22:49:11.615Z,12.50
2018-11-06T22:51:40.714Z,13.00
2018-11-06T22:54:09.548Z,13.00
2018-11-06T22:56:38.418Z,14.87
2018-11-06T22:59:07.622Z,13.97
2018-11-06T23:01:36.711Z,14.50
2018-11-06T23:04:05.655Z,13.93
2018-11-06T23:06:34.703Z,14.17
2018-11-06T23:09:05.286Z,14.15
2018-11-06T23:11:34.238Z,12.90
2018-11-06T23:14:03.248Z,12.80
2018-11-06T23:16:32.259Z,13.70
2018-11-06T23:19:01.087Z,13.63
2018-11-06T23:21:30.025Z,15.00
2018-11-06T23:23:59.016Z,15.63
2018-11-06T23:26:27.902Z,16.47
2018-11-06T23:28:56.894Z,16.00
2018-11-06T23:31:26.217Z,16.07
2018-11-06T23:33:55.498Z,14.77
2018-11-06T23:36:24.462Z,14.73
2018-11-06T23:38:53.516Z,15.10
2018-11-06T23:41:22.472Z,15.37
2018-11-06T23:43:51.396Z,15.03
2018-11-06T23:46:20.330Z,16.90
2018-11-06T23:48:49.262Z,16.53
2018-11-06T23:51:18.211Z,17.57
2018-11-06T23:53:47.150Z,18.03
2018-11-06T23:56:16.166Z,18.42
2018-11-06T23:58:45.064Z,17.90
